Time;durP1;ratioP1;P1;durP2;ratioP2;P2;SDS_P1;SDS_P2;PMS_P1;PMS_P2;Temp;Humidity;BMP_temperature;BMP_pressure;BME280_temperature;BME280_humidity;BME280_pressure;Samples;Min_cycle;Max_cycle;Signal;HPM_P1;HPM_P2
2021/06/02 00:00:42;;;;;;;9.45;3.90;;;;;;;11.97;68.71;100158.41;2060132;28;20057;-83
2021/06/02 00:01:48;;;;;;;4.93;4.03;;;;;;;11.87;69.06;100157.03;2060554;28;20025;-82
2021/06/02 00:02:53;;;;;;;5.20;4.10;;;;;;;11.78;69.40;100156.47;2062421;28;20042;-81
2021/06/02 00:03:54;;;;;;;5.85;3.85;;;;;;;11.70;70.48;100153.28;2062576;28;20066;-82
2021/06/02 00:04:55;;;;;;;4.93;3.75;;;;;;;11.68;70.59;100152.47;2062873;28;20420;-82
2021/06/02 00:05:55;;;;;;;4.50;3.87;;;;;;;11.63;71.36;100149.16;2061547;28;20041;-83
2021/06/02 00:07:06;;;;;;;5.65;4.28;;;;;;;11.56;71.77;100156.34;2060934;28;20030;-83
2021/06/02 00:08:10;;;;;;;5.85;4.07;;;;;;;11.49;72.43;100163.56;2060805;28;20038;-83
2021/06/02 00:09:12;;;;;;;4.40;4.00;;;;;;;11.46;72.43;100162.81;2062680;28;20045;-83
2021/06/02 00:10:14;;;;;;;9.77;4.22;;;;;;;11.36;72.71;100162.28;2061027;28;20031;-83
2021/06/02 00:11:14;;;;;;;6.05;4.43;;;;;;;11.28;72.76;100159.06;2059943;28;20031;-83
2021/06/02 00:12:15;;;;;;;5.83;4.27;;;;;;;11.24;73.19;100155.72;2060836;28;20125;-83
2021/06/02 00:13:16;;;;;;;5.40;3.75;;;;;;;11.24;73.12;100162.69;2062717;28;20062;-83
2021/06/02 00:14:18;;;;;;;8.30;4.13;;;;;;;11.18;73.42;100156.78;2061194;28;20030;-83
2021/06/02 00:15:20;;;;;;;4.90;4.10;;;;;;;11.15;73.46;100159.47;2061912;28;20022;-83
2021/06/02 00:16:20;;;;;;;;;;;;;;;11.10;73.45;100156.19;2062058;28;20037;-83
2021/06/02 00:17:20;;;;;;;6.30;4.40;;;;;;;11.10;73.98;100158.78;2064343;28;19914;-83
2021/06/02 00:18:21;;;;;;;7.37;4.60;;;;;;;11.07;74.22;100158.03;2064464;28;20022;-82
2021/06/02 00:19:22;;;;;;;5.17;4.20;;;;;;;11.04;74.47;100157.22;2064229;28;20062;-82
2021/06/02 00:20:22;;;;;;;5.30;4.30;;;;;;;10.99;74.29;100159.13;2071810;28;20533;-82
2021/06/02 00:21:22;;;;;;;5.67;4.30;;;;;;;10.96;74.60;100147.94;2071936;28;20532;-82
2021/06/02 00:22:23;;;;;;;6.37;4.27;;;;;;;10.94;74.56;100144.53;2062670;28;20107;-82
2021/06/02 00:23:23;;;;;;;6.00;4.13;;;;;;;11.00;74.78;100144.34;2062199;28;20389;-82
2021/06/02 00:24:24;;;;;;;8.47;4.20;;;;;;;10.94;74.94;100140.19;2061039;28;20048;-82
2021/06/02 00:25:24;;;;;;;6.25;4.40;;;;;;;10.91;75.09;100145.50;2064346;28;20549;-82
2021/06/02 00:26:26;;;;;;;12.63;4.60;;;;;;;10.89;75.18;100148.16;2063484;28;20499;-83
2021/06/02 00:27:28;;;;;;;6.53;4.60;;;;;;;10.86;74.97;100143.03;2063927;28;20033;-83
2021/06/02 00:28:29;;;;;;;5.00;4.50;;;;;;;10.88;75.60;100145.56;2064117;28;20093;-82
2021/06/02 00:29:34;;;;;;;7.30;4.63;;;;;;;10.84;75.25;100147.44;2064331;28;20022;-82
2021/06/02 00:30:36;;;;;;;8.55;4.43;;;;;;;10.82;75.40;100146.66;2063471;28;20130;-82
2021/06/02 00:31:38;;;;;;;6.35;4.30;;;;;;;10.83;75.44;100150.94;2060237;28;20064;-82
2021/06/02 00:32:39;;;;;;;8.43;4.55;;;;;;;10.86;75.27;100155.22;2063183;28;20652;-82
2021/06/02 00:33:39;;;;;;;6.07;4.50;;;;;;;10.80;75.30;100148.47;2062082;28;20057;-83
2021/06/02 00:34:41;;;;;;;7.32;4.13;;;;;;;10.79;75.67;100145.88;2063025;28;20038;-83
2021/06/02 00:35:42;;;;;;;7.88;4.95;;;;;;;10.77;75.61;100150.31;2059911;28;20089;-83
2021/06/02 00:36:44;;;;;;;5.32;4.30;;;;;;;10.78;75.61;100138.94;2063565;28;20109;-83
2021/06/02 00:37:47;;;;;;;5.45;4.38;;;;;;;10.76;75.77;100146.84;2064057;28;20034;-83
2021/06/02 00:38:47;;;;;;;12.15;4.50;;;;;;;10.74;75.51;100148.63;2063768;28;20113;-83
2021/06/02 00:39:48;;;;;;;4.80;4.30;;;;;;;10.70;75.63;100147.03;2062689;28;20404;-82
2021/06/02 00:40:50;;;;;;;5.90;4.53;;;;;;;10.71;75.69;100148.75;2063240;28;20540;-82
2021/06/02 00:41:52;;;;;;;9.25;4.85;;;;;;;10.68;76.06;100159.25;2063106;28;20037;-82
2021/06/02 00:42:53;;;;;;;6.78;4.38;;;;;;;10.64;76.08;100149.81;2063789;28;20026;-82
2021/06/02 00:43:53;;;;;;;6.38;4.55;;;;;;;10.59;76.11;100156.03;2063731;28;20064;-82
2021/06/02 00:44:54;;;;;;;5.35;4.82;;;;;;;10.57;76.03;100152.63;2063643;28;20033;-82
2021/06/02 00:45:55;;;;;;;6.88;4.60;;;;;;;10.59;75.70;100158.66;2062833;28;20034;-82
2021/06/02 00:47:00;;;;;;;7.45;4.60;;;;;;;10.61;75.95;100155.16;2063224;28;20026;-82
2021/06/02 00:48:03;;;;;;;7.63;4.50;;;;;;;10.61;75.94;100152.53;2063850;28;20555;-82
2021/06/02 00:49:07;;;;;;;6.15;4.53;;;;;;;10.57;76.29;100155.22;2061458;28;20030;-82
2021/06/02 00:50:08;;;;;;;5.95;4.88;;;;;;;10.56;76.78;100150.09;2058987;28;20065;-83
2021/06/02 00:51:10;;;;;;;6.35;4.97;;;;;;;10.53;76.93;100155.38;2063962;28;20022;-83
2021/06/02 00:52:10;;;;;;;5.28;4.65;;;;;;;10.50;77.15;100153.72;2061371;28;20073;-83
2021/06/02 00:53:12;;;;;;;8.87;5.20;;;;;;;10.45;77.49;100152.16;2061287;28;20026;-83
2021/06/02 00:54:13;;;;;;;5.28;4.78;;;;;;;10.42;77.82;100147.91;2062303;28;20030;-82
2021/06/02 00:55:13;;;;;;;;;;;;;;;10.38;77.78;100151.50;2064248;28;20045;-82
2021/06/02 00:56:15;;;;;;;8.88;4.72;;;;;;;10.35;77.97;100144.59;2063810;28;19914;-82
2021/06/02 00:57:17;;;;;;;6.22;4.30;;;;;;;10.33;77.69;100145.53;2069840;28;20564;-82
2021/06/02 00:58:29;;;;;;;9.52;5.05;;;;;;;10.30;77.33;100149.06;2070538;28;20037;-82
2021/06/02 00:59:31;;;;;;;5.60;4.90;;;;;;;10.28;77.88;100149.13;2061549;28;20032;-82
2021/06/02 01:00:32;;;;;;;7.53;4.90;;;;;;;10.24;77.90;100149.25;2062161;28;20030;-82
2021/06/02 01:01:34;;;;;;;5.37;4.37;;;;;;;10.24;77.90;100144.06;2063804;28;20030;-82
2021/06/02 01:02:36;;;;;;;5.30;4.80;;;;;;;10.17;77.96;100143.38;2057072;28;20448;-82
2021/06/02 01:03:39;;;;;;;7.43;5.10;;;;;;;10.16;78.28;100141.66;2057722;28;20030;-82
2021/06/02 01:04:41;;;;;;;8.68;5.07;;;;;;;10.20;77.95;100143.28;2063722;28;20576;-82
2021/06/02 01:05:41;;;;;;;6.47;5.20;;;;;;;10.23;78.12;100142.34;2060823;28;20978;-82
2021/06/02 01:06:44;;;;;;;8.67;4.67;;;;;;;10.22;77.87;100141.50;2063676;28;20026;-82
2021/06/02 01:07:48;;;;;;;7.10;5.30;;;;;;;10.19;78.73;100156.38;2059324;28;20030;-83
2021/06/02 01:08:49;;;;;;;7.97;5.25;;;;;;;10.15;78.99;100155.59;2058406;28;20150;-83
2021/06/02 01:09:52;;;;;;;9.93;5.40;;;;;;;10.07;78.98;100155.84;2062310;28;20397;-83
2021/06/02 01:10:52;;;;;;;5.60;4.93;;;;;;;10.05;79.14;100154.16;2061803;28;20033;-82
2021/06/02 01:11:53;;;;;;;7.63;5.20;;;;;;;10.02;79.18;100149.88;2063187;28;20065;-82
2021/06/02 01:12:56;;;;;;;7.93;5.47;;;;;;;10.03;79.11;100150.75;2063369;28;20062;-83
2021/06/02 01:13:58;;;;;;;5.60;4.88;;;;;;;9.99;79.24;100151.72;2062141;28;20026;-83
2021/06/02 01:14:59;;;;;;;7.88;4.68;;;;;;;9.96;79.26;100155.28;2063331;28;20034;-83
2021/06/02 01:16:00;;;;;;;11.40;5.90;;;;;;;10.01;79.40;100149.94;2062511;28;20106;-83
2021/06/02 01:17:01;;;;;;;7.50;5.50;;;;;;;10.11;79.11;100157.44;2062905;28;20030;-83
2021/06/02 01:18:02;;;;;;;5.47;4.97;;;;;;;10.09;79.01;100156.63;2061614;28;20061;-82
2021/06/02 01:19:03;;;;;;;6.93;5.60;;;;;;;10.10;79.24;100153.13;2060297;28;20033;-82
2021/06/02 01:20:05;;;;;;;13.85;5.43;;;;;;;10.05;79.43;100156.75;2059606;28;20034;-82
2021/06/02 01:21:10;;;;;;;8.52;5.40;;;;;;;9.96;79.76;100158.72;2061449;28;20030;-82
2021/06/02 01:22:11;;;;;;;6.10;5.30;;;;;;;9.95;79.62;100156.16;2061614;28;20781;-82
2021/06/02 01:23:12;;;;;;;10.90;6.10;;;;;;;9.92;80.03;100158.84;2061029;28;20068;-82
2021/06/02 01:24:13;;;;;;;10.15;5.38;;;;;;;9.89;80.23;100158.97;2059996;28;20508;-82
2021/06/02 01:25:17;;;;;;;7.87;5.67;;;;;;;9.85;80.17;100157.31;2063605;28;20034;-82
2021/06/02 01:26:18;;;;;;;6.38;5.45;;;;;;;9.79;80.22;100158.34;2062862;28;20030;-82
2021/06/02 01:27:18;;;;;;;8.48;5.35;;;;;;;9.77;80.62;100160.13;2060353;28;20026;-82
2021/06/02 01:28:18;;;;;;;6.83;5.67;;;;;;;9.72;80.36;100157.66;2063686;28;20057;-82
2021/06/02 01:29:19;;;;;;;9.53;5.60;;;;;;;9.71;80.52;100155.94;2063437;28;20033;-82
2021/06/02 01:30:21;;;;;;;6.57;4.83;;;;;;;9.69;80.60;100162.97;2060192;28;20700;-82
2021/06/02 01:31:40;;;;;;;7.10;5.55;;;;;;;9.68;80.86;100156.06;2056704;28;20666;-83
2021/06/02 01:33:02;;;;;;;6.75;5.35;;;;;;;9.67;81.04;100154.34;2061699;28;20034;-82
2021/06/02 01:34:40;;;;;;;6.35;5.20;;;;;;;9.61;80.96;100155.34;2060355;28;20451;-82
2021/06/02 01:36:02;;;;;;;5.88;5.28;;;;;;;9.62;81.18;100154.47;2060862;28;20030;-81
2021/06/02 01:37:14;;;;;;;5.68;5.10;;;;;;;9.60;81.60;100155.41;2061684;28;20616;-83
2021/06/02 01:38:19;;;;;;;7.75;5.30;;;;;;;9.56;81.81;100148.56;2059818;28;20439;-83
2021/06/02 01:39:38;;;;;;;7.07;5.53;;;;;;;9.49;81.95;100155.69;2060473;28;20026;-82
2021/06/02 01:41:09;;;;;;;7.47;5.57;;;;;;;9.48;82.16;100159.16;2059856;28;20041;-82
2021/06/02 01:42:32;;;;;;;6.70;5.47;;;;;;;9.43;82.12;100155.84;2065379;28;20030;-82
2021/06/02 01:44:10;;;;;;;6.30;5.70;;;;;;;9.44;81.96;100152.38;2057781;28;20449;-82
2021/06/02 01:45:41;;;;;;;7.15;5.40;;;;;;;9.48;81.48;100153.97;2058454;28;20034;-81
2021/06/02 01:46:58;;;;;;;7.18;5.40;;;;;;;9.45;81.89;100148.88;2056367;28;20027;-79
2021/06/02 01:48:18;;;;;;;7.53;5.38;;;;;;;9.53;81.45;100144.31;2059891;28;20054;-79
2021/06/02 01:49:42;;;;;;;7.38;5.22;;;;;;;9.72;80.42;100146.41;2060006;28;20045;-78
2021/06/02 01:51:08;;;;;;;5.45;4.75;;;;;;;9.74;80.12;100149.84;2060194;28;20521;-78
2021/06/02 01:52:45;;;;;;;11.68;5.20;;;;;;;9.74;80.04;100144.63;2063136;28;20041;-78
2021/06/02 01:53:48;;;;;;;5.88;4.72;;;;;;;9.71;80.06;100149.91;2058889;28;20049;-78
2021/06/02 01:55:12;;;;;;;8.23;4.63;;;;;;;9.70;79.81;100150.78;2062839;28;20026;-78
2021/06/02 01:56:34;;;;;;;6.05;3.75;;;;;;;9.77;79.29;100149.72;2063310;28;20114;-79
2021/06/02 01:58:06;;;;;;;4.32;3.60;;;;;;;9.82;79.13;100147.88;2062308;28;20032;-78
2021/06/02 01:59:09;;;;;;;6.82;4.15;;;;;;;9.96;77.38;100150.91;2062331;28;20042;-78
2021/06/02 02:00:48;;;;;;;4.15;3.65;;;;;;;10.04;77.16;100152.47;2062445;28;20022;-78
2021/06/02 02:02:22;;;;;;;4.22;3.47;;;;;;;10.02;77.26;100149.03;2061882;28;20424;-78
2021/06/02 02:03:47;;;;;;;6.35;4.03;;;;;;;10.01;77.62;100142.97;2063038;28;20381;-78
2021/06/02 02:05:23;;;;;;;8.82;3.72;;;;;;;9.95;77.63;100154.41;2061356;28;20408;-78
2021/06/02 02:06:42;;;;;;;3.97;3.58;;;;;;;9.99;77.87;100155.19;2053854;28;20042;-78
2021/06/02 02:08:10;;;;;;;4.55;3.83;;;;;;;10.01;77.38;100140.38;2061324;28;20038;-78
2021/06/02 02:09:13;;;;;;;4.88;4.00;;;;;;;9.97;77.92;100147.41;2061877;28;20038;-78
2021/06/02 02:10:36;;;;;;;4.80;3.97;;;;;;;10.06;77.04;100145.44;2062835;28;20036;-78
2021/06/02 02:11:41;;;;;;;5.95;3.60;;;;;;;10.04;77.06;100142.06;2060639;28;20621;-78
2021/06/02 02:12:57;;;;;;;5.85;3.58;;;;;;;10.17;76.01;100138.16;2063076;28;20018;-78
2021/06/02 02:13:57;;;;;;;10.38;3.67;;;;;;;10.22;75.52;100140.63;2068454;28;20053;-78
2021/06/02 02:15:18;;;;;;;5.00;3.90;;;;;;;10.14;76.20;100135.66;2060407;28;20037;-78
2021/06/02 02:16:49;;;;;;;8.73;3.67;;;;;;;10.12;76.14;100142.69;2070631;28;20054;-78
2021/06/02 02:18:14;;;;;;;11.50;4.78;;;;;;;10.13;76.97;100149.59;2066047;28;20727;-78
2021/06/02 02:19:26;;;;;;;6.95;4.22;;;;;;;10.07;76.73;100145.41;2062914;28;20026;-78
2021/06/02 02:20:26;;;;;;;;;;;;;;;10.04;77.16;100147.25;2063734;28;20041;-78
2021/06/02 02:21:42;;;;;;;6.07;4.35;;;;;;;10.07;77.19;100154.97;2062442;28;19910;-78
2021/06/02 02:23:14;;;;;;;7.10;4.55;;;;;;;10.03;77.19;100153.34;2059398;28;20485;-78
2021/06/02 02:24:44;;;;;;;9.95;5.07;;;;;;;9.99;77.26;100154.34;2062910;28;20061;-78
2021/06/02 02:25:58;;;;;;;7.15;5.50;;;;;;;9.95;78.06;100159.63;2059500;28;20405;-78
2021/06/02 02:27:05;;;;;;;5.55;4.75;;;;;;;9.87;78.35;100156.38;2063075;28;20026;-78
2021/06/02 02:28:21;;;;;;;8.27;5.60;;;;;;;9.75;78.87;100156.72;2063035;28;20034;-78
2021/06/02 02:29:39;;;;;;;7.70;5.38;;;;;;;9.60;79.42;100153.66;2062880;28;20026;-78
2021/06/02 02:31:06;;;;;;;6.57;4.97;;;;;;;9.52;79.81;100155.59;2061090;28;20088;-78
2021/06/02 02:32:43;;;;;;;5.82;5.07;;;;;;;9.40;80.02;100158.53;2068771;28;20032;-78
2021/06/02 02:34:01;;;;;;;6.10;5.00;;;;;;;9.29;80.52;100158.81;2063071;28;20413;-78
2021/06/02 02:35:28;;;;;;;7.43;5.63;;;;;;;9.24;80.84;100156.34;2058310;28;20800;-78
2021/06/02 02:36:40;;;;;;;5.70;5.18;;;;;;;9.22;80.87;100163.31;2062904;28;20069;-78
2021/06/02 02:37:49;;;;;;;;;;;;;;;9.11;81.38;100154.91;2061556;28;20087;-78
2021/06/02 02:39:08;;;;;;;6.63;5.55;;;;;;;9.06;81.73;100156.78;2062749;28;19913;-79
2021/06/02 02:40:27;;;;;;;8.48;5.15;;;;;;;9.03;81.66;100163.78;2062280;28;20459;-78
2021/06/02 02:41:51;;;;;;;6.07;5.10;;;;;;;8.99;81.72;100156.09;2061382;28;20030;-78
2021/06/02 02:43:12;;;;;;;6.25;5.60;;;;;;;8.95;82.46;100159.63;2061866;28;20656;-78
2021/06/02 02:44:35;;;;;;;9.52;5.43;;;;;;;8.90;82.57;100157.16;2061075;28;20735;-78
2021/06/02 02:45:40;;;;;;;7.65;5.38;;;;;;;8.86;82.67;100158.13;2062344;28;20024;-78
2021/06/02 02:47:04;;;;;;;15.20;5.90;;;;;;;8.80;82.87;100159.13;2061507;28;20026;-78
2021/06/02 02:48:29;;;;;;;6.15;5.55;;;;;;;8.78;83.11;100162.63;2059932;28;20030;-78
2021/06/02 02:49:41;;;;;;;11.68;5.72;;;;;;;8.74;83.36;100164.44;2061746;28;20414;-78
2021/06/02 02:51:12;;;;;;;6.68;5.85;;;;;;;8.69;83.40;100163.72;2061788;28;20034;-78
2021/06/02 02:52:38;;;;;;;8.18;6.07;;;;;;;8.69;83.51;100164.56;2063350;28;20034;-78
2021/06/02 02:53:57;;;;;;;7.00;5.45;;;;;;;8.63;83.79;100163.84;2058163;28;20023;-78
2021/06/02 02:55:11;;;;;;;7.65;5.97;;;;;;;8.60;83.81;100162.16;2063702;28;20101;-78
2021/06/02 02:56:20;;;;;;;7.97;5.40;;;;;;;8.65;83.29;100172.47;2064334;28;20026;-78
2021/06/02 02:57:39;;;;;;;6.35;5.45;;;;;;;8.61;83.26;100166.47;2064412;28;20018;-79
2021/06/02 02:58:45;;;;;;;6.88;5.80;;;;;;;8.60;83.03;100164.78;2063958;28;20026;-79
2021/06/02 02:59:56;;;;;;;6.28;5.68;;;;;;;8.57;83.11;100164.88;2064019;28;20018;-78
2021/06/02 03:01:04;;;;;;;6.30;5.53;;;;;;;8.58;83.29;100161.34;2064191;28;20018;-78
2021/06/02 03:02:15;;;;;;;7.03;5.70;;;;;;;8.55;83.63;100161.44;2064215;28;20401;-78
2021/06/02 03:03:29;;;;;;;7.15;5.57;;;;;;;8.53;83.65;100168.41;2057215;28;20580;-78
2021/06/02 03:04:37;;;;;;;7.68;5.72;;;;;;;8.52;83.71;100169.28;2056329;28;20524;-78
2021/06/02 03:05:47;;;;;;;5.93;5.32;;;;;;;8.51;83.30;100165.84;2056334;28;20038;-78
2021/06/02 03:06:53;;;;;;;7.25;5.53;;;;;;;8.50;83.42;100168.47;2056318;28;20030;-78
2021/06/02 03:08:11;;;;;;;9.00;5.80;;;;;;;8.51;83.27;100170.19;2056361;28;20094;-78
2021/06/02 03:09:21;;;;;;;7.43;5.60;;;;;;;8.53;82.96;100163.22;2056309;28;20117;-78
2021/06/02 03:10:22;;;;;;;7.10;5.47;;;;;;;8.49;83.57;100172.81;2056318;28;20027;-78
2021/06/02 03:11:46;;;;;;;13.15;5.40;;;;;;;8.51;83.28;100178.84;2056228;28;20038;-79
2021/06/02 03:12:58;;;;;;;7.60;5.50;;;;;;;8.52;83.13;100177.09;2057780;28;20073;-78
2021/06/02 03:14:20;;;;;;;9.32;5.68;;;;;;;8.59;83.19;100178.66;2064338;28;20034;-78
2021/06/02 03:15:41;;;;;;;7.07;5.57;;;;;;;8.62;83.12;100178.59;2064263;28;20084;-78
2021/06/02 03:16:49;;;;;;;10.10;6.00;;;;;;;8.69;82.83;100174.09;2064267;28;20045;-78
2021/06/02 03:17:59;;;;;;;7.38;5.30;;;;;;;8.70;82.57;100181.84;2064165;28;20014;-78
2021/06/02 03:19:12;;;;;;;10.25;5.55;;;;;;;8.76;82.59;100175.66;2064346;28;20097;-78
2021/06/02 03:20:20;;;;;;;8.52;5.40;;;;;;;8.78;82.29;100180.81;2064216;28;20040;-78
2021/06/02 03:21:52;;;;;;;7.88;5.30;;;;;;;8.79;82.22;100186.00;2064095;28;20429;-78
2021/06/02 03:23:09;;;;;;;8.38;5.72;;;;;;;8.74;82.05;100184.41;2057550;28;20101;-78
2021/06/02 03:24:22;;;;;;;8.07;5.38;;;;;;;8.75;81.92;100186.13;2056115;28;20090;-78
2021/06/02 03:25:27;;;;;;;6.00;5.43;;;;;;;8.72;82.31;100187.88;2056292;28;20085;-78
2021/06/02 03:26:38;;;;;;;6.88;5.47;;;;;;;8.67;82.50;100184.53;2056498;28;20027;-78
2021/06/02 03:27:58;;;;;;;6.82;5.72;;;;;;;8.62;82.84;100183.78;2055407;28;20113;-78
2021/06/02 03:29:15;;;;;;;10.07;5.38;;;;;;;8.58;82.59;100187.31;2055963;28;20045;-78
2021/06/02 03:30:43;;;;;;;8.13;5.18;;;;;;;8.59;82.49;100183.84;2056188;28;20504;-78
2021/06/02 03:31:58;;;;;;;8.68;5.47;;;;;;;8.59;82.82;100186.44;2056117;28;20035;-78
2021/06/02 03:33:37;;;;;;;12.65;6.00;;;;;;;8.56;82.91;100186.53;2055450;28;20409;-78
2021/06/02 03:35:07;;;;;;;7.03;5.97;;;;;;;8.57;83.20;100188.25;2055392;28;20047;-78
2021/06/02 03:36:41;;;;;;;7.15;5.60;;;;;;;8.54;83.15;100189.13;2056154;28;20113;-78
2021/06/02 03:38:03;;;;;;;6.00;5.40;;;;;;;8.63;82.98;100185.50;2056253;28;20524;-78
2021/06/02 03:39:18;;;;;;;7.85;6.22;;;;;;;8.60;83.28;100192.50;2056346;28;20035;-79
2021/06/02 03:40:35;;;;;;;9.35;6.00;;;;;;;8.59;82.94;100191.63;2056187;28;20130;-79
2021/06/02 03:41:59;;;;;;;9.70;5.88;;;;;;;8.56;82.96;100183.94;2056240;28;20039;-78
2021/06/02 03:43:22;;;;;;;6.80;5.75;;;;;;;8.55;82.95;100190.84;2056072;28;20027;-78
2021/06/02 03:44:41;;;;;;;8.50;5.63;;;;;;;8.55;82.72;100185.66;2056123;28;20037;-78
2021/06/02 03:45:53;;;;;;;7.28;5.80;;;;;;;8.56;82.80;100189.97;2056360;28;20027;-78
2021/06/02 03:47:24;;;;;;;10.93;5.90;;;;;;;8.54;82.91;100190.91;2059013;28;20031;-78
2021/06/02 03:48:39;;;;;;;10.18;6.13;;;;;;;8.57;82.81;100190.84;2056890;28;20050;-78
2021/06/02 03:49:47;;;;;;;9.57;5.95;;;;;;;8.61;82.40;100184.66;2056771;28;20026;-78
2021/06/02 03:51:25;;;;;;;7.85;5.53;;;;;;;8.67;82.57;100188.88;2056911;28;20486;-78
2021/06/02 03:52:43;;;;;;;9.13;5.20;;;;;;;9.03;81.37;100188.91;2064400;28;20027;-78
2021/06/02 03:53:53;;;;;;;6.43;5.00;;;;;;;9.95;78.38;100190.84;2062993;28;20031;-78
2021/06/02 03:55:04;;;;;;;5.85;4.80;;;;;;;11.10;73.24;100187.47;2057662;28;20023;-78
2021/06/02 03:56:32;;;;;;;5.85;5.03;;;;;;;11.93;68.87;100185.53;2057839;28;20026;-78
2021/06/02 03:57:36;;;;;;;5.82;4.22;;;;;;;12.45;66.20;100181.00;2057701;28;20161;-78
2021/06/02 03:59:03;;;;;;;6.25;4.35;;;;;;;13.18;64.10;100182.50;2057657;28;20453;-78
2021/06/02 04:00:10;;;;;;;5.65;3.70;;;;;;;13.45;62.52;100190.16;2057719;28;20074;-78
2021/06/02 04:01:27;;;;;;;4.63;3.88;;;;;;;14.03;60.28;100184.13;2061711;28;20041;-78
2021/06/02 04:02:45;;;;;;;6.05;3.42;;;;;;;13.78;59.62;100187.84;2065027;28;20397;-78
2021/06/02 04:04:11;;;;;;;5.53;3.75;;;;;;;13.50;60.62;100186.44;2070554;28;20485;-78
2021/06/02 04:05:29;;;;;;;3.85;3.35;;;;;;;13.22;61.46;100189.31;2064081;28;20030;-78
2021/06/02 04:06:39;;;;;;;6.35;3.60;;;;;;;12.76;63.10;100194.66;2064505;28;20065;-78
2021/06/02 04:07:57;;;;;;;4.13;3.13;;;;;;;12.64;63.25;100195.97;2065131;28;20030;-78
2021/06/02 04:09:04;;;;;;;7.57;3.70;;;;;;;12.39;64.59;100202.13;2065634;28;20027;-78
2021/06/02 04:10:11;;;;;;;5.60;4.00;;;;;;;12.10;65.62;100200.63;2065134;28;20034;-78
2021/06/02 04:11:28;;;;;;;7.68;4.03;;;;;;;11.89;66.00;100205.69;2059681;28;20027;-78
2021/06/02 04:12:49;;;;;;;7.28;3.80;;;;;;;11.65;66.40;100208.25;2057531;28;20524;-78
2021/06/02 04:13:55;;;;;;;7.82;3.90;;;;;;;11.45;68.04;100213.31;2057401;28;20541;-78
2021/06/02 04:14:58;;;;;;;7.35;3.63;;;;;;;11.39;67.88;100211.75;2057574;28;20425;-78
2021/06/02 04:16:09;;;;;;;6.55;3.90;;;;;;;11.24;68.88;100212.25;2057447;28;20038;-78
2021/06/02 04:17:10;;;;;;;;;;;;;;;11.15;69.28;100219.47;2058032;28;20023;-78
2021/06/02 04:18:12;;;;;;;6.97;4.18;;;;;;;11.05;69.72;100226.75;2057347;28;19973;-78
2021/06/02 04:19:16;;;;;;;7.30;4.10;;;;;;;11.03;70.10;100225.06;2057587;28;20023;-78
2021/06/02 04:20:19;;;;;;;7.68;4.28;;;;;;;10.99;70.78;100226.09;2057418;28;20062;-79
2021/06/02 04:21:22;;;;;;;7.65;4.10;;;;;;;10.89;71.75;100217.69;2063438;28;20097;-79
2021/06/02 04:22:24;;;;;;;5.70;4.05;;;;;;;10.83;71.96;100216.13;2065127;28;20034;-78
2021/06/02 04:23:25;;;;;;;7.00;4.25;;;;;;;10.74;71.97;100221.63;2057331;28;20113;-79
2021/06/02 04:24:29;;;;;;;8.35;4.10;;;;;;;10.81;72.22;100220.56;2057311;28;20078;-79
2021/06/02 04:25:30;;;;;;;5.85;3.88;;;;;;;10.84;71.11;100217.00;2057379;28;20038;-78
2021/06/02 04:26:35;;;;;;;7.50;4.10;;;;;;;10.88;70.71;100215.97;2057353;28;20077;-78
2021/06/02 04:27:39;;;;;;;4.97;3.58;;;;;;;10.92;70.56;100219.38;2057413;28;20063;-79
2021/06/02 04:28:39;;;;;;;5.13;3.90;;;;;;;11.03;70.16;100214.63;2057311;28;20031;-79
2021/06/02 04:29:43;;;;;;;5.35;3.50;;;;;;;11.19;69.35;100210.66;2057454;28;20030;-79
2021/06/02 04:30:49;;;;;;;6.03;3.63;;;;;;;11.40;68.19;100216.06;2061413;28;20559;-78
2021/06/02 04:31:53;;;;;;;6.53;3.67;;;;;;;11.42;68.04;100208.19;2062504;28;20034;-79
2021/06/02 04:32:58;;;;;;;6.20;3.60;;;;;;;11.60;66.97;100211.94;2063734;28;20030;-79
2021/06/02 04:34:02;;;;;;;6.57;3.70;;;;;;;11.63;66.50;100209.19;2060657;28;20035;-79
2021/06/02 04:35:03;;;;;;;5.30;3.20;;;;;;;11.71;66.54;100209.78;2061739;28;20049;-79
2021/06/02 04:36:06;;;;;;;3.95;3.55;;;;;;;11.80;66.05;100206.88;2058658;28;20472;-78
2021/06/02 04:37:08;;;;;;;5.18;3.50;;;;;;;11.86;66.03;100213.59;2061431;28;20038;-78
2021/06/02 04:38:10;;;;;;;5.82;4.30;;;;;;;11.98;64.89;100212.38;2063004;28;20470;-79
2021/06/02 04:39:11;;;;;;;6.57;4.15;;;;;;;12.07;64.97;100206.81;2063874;28;20482;-79
2021/06/02 04:40:13;;;;;;;4.75;4.10;;;;;;;12.23;64.24;100212.34;2063454;28;20057;-79
2021/06/02 04:41:14;;;;;;;5.45;4.20;;;;;;;12.25;63.96;100207.88;2063881;28;20100;-78
2021/06/02 04:42:14;;;;;;;6.25;4.30;;;;;;;12.26;64.12;100206.13;2063948;28;20062;-78
2021/06/02 04:43:14;;;;;;;5.97;3.63;;;;;;;12.34;64.22;100214.53;2060934;28;20068;-79
2021/06/02 04:44:16;;;;;;;10.80;3.70;;;;;;;12.31;64.06;100209.41;2061876;28;20077;-79
2021/06/02 04:45:24;;;;;;;7.20;3.50;;;;;;;12.42;63.57;100206.41;2063197;28;20066;-78
2021/06/02 04:46:24;;;;;;;6.00;3.47;;;;;;;12.60;62.23;100197.88;2063930;28;20454;-79
2021/06/02 04:47:25;;;;;;;7.40;3.67;;;;;;;12.63;62.23;100206.50;2056778;28;20042;-79
2021/06/02 04:48:26;;;;;;;7.00;3.65;;;;;;;12.70;61.89;100203.56;2060919;28;20026;-78
2021/06/02 04:49:37;;;;;;;6.15;3.85;;;;;;;12.71;62.28;100209.69;2063369;28;20038;-79
2021/06/02 04:50:47;;;;;;;4.85;3.60;;;;;;;12.79;62.12;100201.50;2060430;28;20041;-79
2021/06/02 04:52:21;;;;;;;3.80;3.25;;;;;;;12.90;61.39;100201.94;2059375;28;20030;-78
2021/06/02 04:53:58;;;;;;;4.57;3.60;;;;;;;13.02;60.79;100211.91;2059466;28;20158;-79
2021/06/02 04:55:25;;;;;;;6.07;3.58;;;;;;;13.18;60.18;100211.28;2060117;28;20062;-79
2021/06/02 04:56:56;;;;;;;5.45;3.60;;;;;;;14.47;57.40;100211.84;2056889;28;20039;-79
2021/06/02 04:58:18;;;;;;;7.38;3.45;;;;;;;18.33;46.22;100199.03;2057054;28;20030;-79
2021/06/02 04:59:49;;;;;;;3.83;3.42;;;;;;;22.06;37.91;100194.16;2065074;28;20033;-79
2021/06/02 05:01:36;;;;;;;5.30;3.15;;;;;;;25.92;30.17;100203.66;2065198;28;20034;-79
2021/06/02 05:03:16;;;;;;;4.50;2.90;;;;;;;27.28;28.08;100208.31;2061437;28;20056;-80
2021/06/02 05:04:47;;;;;;;5.35;3.15;;;;;;;27.71;28.32;100212.97;2063644;28;20026;-79
2021/06/02 05:06:24;;;;;;;5.00;3.10;;;;;;;29.63;25.92;100214.13;2056389;28;20890;-79
2021/06/02 05:07:50;;;;;;;6.50;3.15;;;;;;;29.44;26.00;100226.88;2056937;28;20019;-79
2021/06/02 05:09:27;;;;;;;5.60;3.72;;;;;;;30.28;24.79;100226.50;2064586;28;20429;-79
2021/06/02 05:11:02;;;;;;;4.88;3.25;;;;;;;31.13;23.51;100228.56;2065077;28;20105;-79
2021/06/02 05:12:02;;;;;;;4.60;3.00;;;;;;;32.56;21.38;100225.88;2064936;28;20109;-80
2021/06/02 05:13:05;;;;;;;4.40;3.10;;;;;;;32.79;21.02;100233.81;2064432;28;20113;-80
2021/06/02 05:14:41;;;;;;;5.63;3.30;;;;;;;33.63;19.88;100229.56;2064334;28;20026;-80
2021/06/02 05:16:18;;;;;;;9.02;3.60;;;;;;;31.34;22.10;100234.09;2065083;28;20034;-79
2021/06/02 05:17:28;;;;;;;5.97;3.15;;;;;;;33.63;19.64;100234.97;2065272;28;20026;-79
2021/06/02 05:18:52;;;;;;;4.38;3.25;;;;;;;35.96;17.31;100231.34;2060663;28;20030;-79
2021/06/02 05:20:19;;;;;;;4.43;3.00;;;;;;;36.75;16.41;100236.63;2064483;28;20590;-80
2021/06/02 05:22:06;;;;;;;7.35;3.08;;;;;;;36.77;16.35;100234.53;2057249;28;20023;-80
2021/06/02 05:23:27;;;;;;;6.05;2.90;;;;;;;36.67;16.12;100237.72;2057071;28;20034;-80
2021/06/02 05:24:41;;;;;;;;;;;;;;;32.60;20.49;100244.19;2056756;28;20035;-80
2021/06/02 05:26:11;;;;;;;4.75;3.05;;;;;;;33.62;20.04;100251.38;2056734;28;20408;-80
2021/06/02 05:27:30;;;;;;;3.83;2.40;;;;;;;35.53;18.03;100251.63;2057067;28;20490;-80
2021/06/02 05:29:03;;;;;;;6.32;2.40;;;;;;;37.06;15.86;100243.94;2061373;28;20633;-80
2021/06/02 05:30:28;;;;;;;4.05;2.15;;;;;;;37.63;14.96;100253.09;2065209;28;20497;-80
2021/06/02 05:32:06;;;;;;;13.38;2.30;;;;;;;38.94;14.13;100248.38;2065045;28;20026;-80
2021/06/02 05:33:37;;;;;;;4.93;2.47;;;;;;;38.26;13.98;100252.00;2064182;28;20592;-80
2021/06/02 05:35:05;;;;;;;6.85;2.30;;;;;;;36.39;15.66;100257.88;2063162;28;20386;-80
2021/06/02 05:36:36;;;;;;;4.38;2.08;;;;;;;36.68;15.24;100244.00;2057123;28;20037;-80
2021/06/02 05:37:40;;;;;;;4.10;2.08;;;;;;;37.65;14.83;100253.72;2057148;28;20034;-80
2021/06/02 05:39:12;;;;;;;2.38;1.88;;;;;;;38.60;13.83;100251.56;2057144;28;20050;-80